sensor_id;sensor_type;location;lat;lon;timestamp;P1;durP1;ratioP1;P2;durP2;ratioP2
28158;SDS011;15447;50.828;4.406;2023-12-07T06:30:47;38.60;;;16.45;;
28158;SDS011;15447;50.828;4.406;2023-12-07T06:33:16;38.53;;;16.20;;
28158;SDS011;15447;50.828;4.406;2023-12-07T06:35:45;30.30;;;16.55;;
28158;SDS011;15447;50.828;4.406;2023-12-07T06:38:13;32.80;;;17.02;;
28158;SDS011;15447;50.828;4.406;2023-12-07T06:40:52;38.25;;;16.33;;
28158;SDS011;15447;50.828;4.406;2023-12-07T06:43:23;32.05;;;13.68;;
28158;SDS011;15447;50.828;4.406;2023-12-07T06:45:49;34.20;;;15.88;;
28158;SDS011;15447;50.828;4.406;2023-12-07T06:48:15;32.25;;;15.43;;
28158;SDS011;15447;50.828;4.406;2023-12-07T06:50:41;38.65;;;16.73;;
28158;SDS011;15447;50.828;4.406;2023-12-07T06:53:06;37.03;;;17.05;;
28158;SDS011;15447;50.828;4.406;2023-12-07T06:55:32;34.95;;;16.42;;
28158;SDS011;15447;50.828;4.406;2023-12-07T06:57:58;35.00;;;16.13;;
28158;SDS011;15447;50.828;4.406;2023-12-07T07:00:30;41.15;;;17.00;;
28158;SDS011;15447;50.828;4.406;2023-12-07T07:03:01;31.10;;;14.82;;
28158;SDS011;15447;50.828;4.406;2023-12-07T07:05:32;33.42;;;16.08;;
28158;SDS011;15447;50.828;4.406;2023-12-07T07:08:00;30.88;;;16.13;;
28158;SDS011;15447;50.828;4.406;2023-12-07T07:10:26;31.30;;;14.82;;
28158;SDS011;15447;50.828;4.406;2023-12-07T07:12:52;31.80;;;15.55;;
28158;SDS011;15447;50.828;4.406;2023-12-07T07:18:22;32.60;;;15.38;;
28158;SDS011;15447;50.828;4.406;2023-12-07T07:23:48;32.47;;;16.88;;
28158;SDS011;15447;50.828;4.406;2023-12-07T07:26:20;32.60;;;15.65;;
28158;SDS011;15447;50.828;4.406;2023-12-07T07:28:55;37.22;;;15.90;;
28158;SDS011;15447;50.828;4.406;2023-12-07T07:31:34;32.10;;;15.50;;
28158;SDS011;15447;50.828;4.406;2023-12-07T07:34:03;33.80;;;15.95;;
28158;SDS011;15447;50.828;4.406;2023-12-07T07:36:35;31.85;;;15.35;;
28158;SDS011;15447;50.828;4.406;2023-12-07T07:39:04;36.42;;;16.77;;
28158;SDS011;15447;50.828;4.406;2023-12-07T07:41:35;33.75;;;16.50;;
28158;SDS011;15447;50.828;4.406;2023-12-07T07:44:08;36.40;;;16.15;;
28158;SDS011;15447;50.828;4.406;2023-12-07T07:46:43;39.70;;;17.10;;
28158;SDS011;15447;50.828;4.406;2023-12-07T07:49:14;34.03;;;16.80;;
28158;SDS011;15447;50.828;4.406;2023-12-07T07:51:42;34.47;;;16.25;;
28158;SDS011;15447;50.828;4.406;2023-12-07T07:54:16;35.10;;;15.95;;
28158;SDS011;15447;50.828;4.406;2023-12-07T07:56:43;30.92;;;15.32;;
28158;SDS011;15447;50.828;4.406;2023-12-07T07:59:12;35.20;;;17.08;;
28158;SDS011;15447;50.828;4.406;2023-12-07T08:01:45;36.97;;;16.60;;
28158;SDS011;15447;50.828;4.406;2023-12-07T08:04:15;39.10;;;17.02;;
28158;SDS011;15447;50.828;4.406;2023-12-07T08:06:41;33.65;;;15.18;;
28158;SDS011;15447;50.828;4.406;2023-12-07T08:09:11;30.92;;;15.38;;
28158;SDS011;15447;50.828;4.406;2023-12-07T08:11:40;33.20;;;15.35;;
28158;SDS011;15447;50.828;4.406;2023-12-07T08:14:09;23.23;;;13.13;;
28158;SDS011;15447;50.828;4.406;2023-12-07T08:16:41;27.10;;;14.27;;
28158;SDS011;15447;50.828;4.406;2023-12-07T08:19:12;27.70;;;13.13;;
28158;SDS011;15447;50.828;4.406;2023-12-07T08:21:41;27.15;;;13.20;;
28158;SDS011;15447;50.828;4.406;2023-12-07T08:24:13;23.08;;;11.75;;
28158;SDS011;15447;50.828;4.406;2023-12-07T08:26:41;24.83;;;12.38;;
28158;SDS011;15447;50.828;4.406;2023-12-07T08:29:16;30.13;;;11.98;;
28158;SDS011;15447;50.828;4.406;2023-12-07T08:31:46;20.75;;;11.00;;
28158;SDS011;15447;50.828;4.406;2023-12-07T08:34:16;27.67;;;11.63;;
28158;SDS011;15447;50.828;4.406;2023-12-07T08:36:47;20.52;;;10.75;;
28158;SDS011;15447;50.828;4.406;2023-12-07T08:39:19;21.52;;;11.30;;
28158;SDS011;15447;50.828;4.406;2023-12-07T08:41:53;25.25;;;11.18;;
28158;SDS011;15447;50.828;4.406;2023-12-07T08:44:24;23.70;;;11.48;;
28158;SDS011;15447;50.828;4.406;2023-12-07T08:46:56;27.45;;;11.30;;
28158;SDS011;15447;50.828;4.406;2023-12-07T08:49:30;28.70;;;12.70;;
28158;SDS011;15447;50.828;4.406;2023-12-07T08:51:58;30.73;;;12.77;;
28158;SDS011;15447;50.828;4.406;2023-12-07T08:54:26;27.83;;;11.68;;
28158;SDS011;15447;50.828;4.406;2023-12-07T08:56:55;28.70;;;11.65;;
28158;SDS011;15447;50.828;4.406;2023-12-07T08:59:24;28.27;;;13.02;;
28158;SDS011;15447;50.828;4.406;2023-12-07T09:02:03;28.70;;;12.90;;
28158;SDS011;15447;50.828;4.406;2023-12-07T09:04:34;26.95;;;11.82;;
28158;SDS011;15447;50.828;4.406;2023-12-07T09:07:07;27.75;;;13.27;;
28158;SDS011;15447;50.828;4.406;2023-12-07T09:09:40;27.63;;;12.18;;
28158;SDS011;15447;50.828;4.406;2023-12-07T09:12:23;21.02;;;12.30;;
28158;SDS011;15447;50.828;4.406;2023-12-07T09:14:48;21.17;;;11.50;;
28158;SDS011;15447;50.828;4.406;2023-12-07T09:17:17;26.55;;;12.45;;
28158;SDS011;15447;50.828;4.406;2023-12-07T09:19:48;23.13;;;12.15;;
28158;SDS011;15447;50.828;4.406;2023-12-07T09:22:53;24.10;;;11.38;;
28158;SDS011;15447;50.828;4.406;2023-12-07T09:25:33;22.25;;;10.77;;
28158;SDS011;15447;50.828;4.406;2023-12-07T09:28:20;32.05;;;12.25;;
28158;SDS011;15447;50.828;4.406;2023-12-07T09:30:47;27.05;;;13.02;;
28158;SDS011;15447;50.828;4.406;2023-12-07T09:33:18;28.38;;;12.52;;
28158;SDS011;15447;50.828;4.406;2023-12-07T09:35:48;29.42;;;11.48;;
28158;SDS011;15447;50.828;4.406;2023-12-07T09:38:17;23.42;;;11.45;;
28158;SDS011;15447;50.828;4.406;2023-12-07T09:40:51;22.08;;;10.07;;
28158;SDS011;15447;50.828;4.406;2023-12-07T09:43:18;23.40;;;10.82;;
28158;SDS011;15447;50.828;4.406;2023-12-07T09:45:44;25.15;;;10.52;;
28158;SDS011;15447;50.828;4.406;2023-12-07T09:48:13;19.73;;;9.70;;
28158;SDS011;15447;50.828;4.406;2023-12-07T09:50:44;20.58;;;10.38;;
28158;SDS011;15447;50.828;4.406;2023-12-07T09:53:10;16.30;;;9.07;;
28158;SDS011;15447;50.828;4.406;2023-12-07T09:55:58;17.92;;;8.43;;
28158;SDS011;15447;50.828;4.406;2023-12-07T09:58:26;15.90;;;8.43;;
28158;SDS011;15447;50.828;4.406;2023-12-07T10:00:52;15.52;;;8.18;;
28158;SDS011;15447;50.828;4.406;2023-12-07T10:03:20;15.38;;;7.65;;
28158;SDS011;15447;50.828;4.406;2023-12-07T10:05:58;18.27;;;8.73;;
28158;SDS011;15447;50.828;4.406;2023-12-07T10:11:04;14.75;;;7.70;;
28158;SDS011;15447;50.828;4.406;2023-12-07T10:13:38;17.90;;;9.25;;
28158;SDS011;15447;50.828;4.406;2023-12-07T10:16:13;16.95;;;8.75;;
28158;SDS011;15447;50.828;4.406;2023-12-07T10:18:41;20.80;;;8.75;;
28158;SDS011;15447;50.828;4.406;2023-12-07T10:21:09;19.30;;;7.57;;
28158;SDS011;15447;50.828;4.406;2023-12-07T10:23:44;18.48;;;8.88;;
28158;SDS011;15447;50.828;4.406;2023-12-07T10:26:13;15.18;;;8.07;;
28158;SDS011;15447;50.828;4.406;2023-12-07T10:28:55;15.88;;;7.97;;
28158;SDS011;15447;50.828;4.406;2023-12-07T10:31:32;20.52;;;8.23;;
28158;SDS011;15447;50.828;4.406;2023-12-07T10:34:00;20.92;;;8.23;;
28158;SDS011;15447;50.828;4.406;2023-12-07T10:36:26;14.93;;;7.53;;
28158;SDS011;15447;50.828;4.406;2023-12-07T10:38:59;15.85;;;7.43;;
28158;SDS011;15447;50.828;4.406;2023-12-07T10:41:25;15.05;;;8.13;;
28158;SDS011;15447;50.828;4.406;2023-12-07T10:43:52;16.70;;;7.65;;
28158;SDS011;15447;50.828;4.406;2023-12-07T10:46:33;16.38;;;7.90;;
28158;SDS011;15447;50.828;4.406;2023-12-07T10:49:06;16.85;;;8.07;;
28158;SDS011;15447;50.828;4.406;2023-12-07T10:51:45;14.68;;;7.78;;
28158;SDS011;15447;50.828;4.406;2023-12-07T10:54:22;18.88;;;7.72;;
28158;SDS011;15447;50.828;4.406;2023-12-07T10:57:35;17.42;;;8.27;;
28158;SDS011;15447;50.828;4.406;2023-12-07T11:00:06;19.88;;;8.45;;
28158;SDS011;15447;50.828;4.406;2023-12-07T11:02:42;16.42;;;7.93;;
28158;SDS011;15447;50.828;4.406;2023-12-07T11:05:14;15.20;;;7.65;;
28158;SDS011;15447;50.828;4.406;2023-12-07T11:10:20;12.35;;;7.45;;
28158;SDS011;15447;50.828;4.406;2023-12-07T11:15:52;15.02;;;7.30;;
28158;SDS011;15447;50.828;4.406;2023-12-07T11:18:28;15.55;;;8.10;;
28158;SDS011;15447;50.828;4.406;2023-12-07T11:21:04;17.75;;;7.10;;
28158;SDS011;15447;50.828;4.406;2023-12-07T11:23:41;12.68;;;7.55;;
28158;SDS011;15447;50.828;4.406;2023-12-07T11:26:11;12.68;;;7.15;;
28158;SDS011;15447;50.828;4.406;2023-12-07T11:28:40;14.38;;;7.05;;
28158;SDS011;15447;50.828;4.406;2023-12-07T11:31:11;14.48;;;6.38;;
28158;SDS011;15447;50.828;4.406;2023-12-07T11:33:40;15.02;;;7.00;;
28158;SDS011;15447;50.828;4.406;2023-12-07T11:36:18;10.93;;;7.10;;
28158;SDS011;15447;50.828;4.406;2023-12-07T11:42:33;11.73;;;6.07;;
28158;SDS011;15447;50.828;4.406;2023-12-07T11:45:05;9.75;;;6.35;;
28158;SDS011;15447;50.828;4.406;2023-12-07T11:48:10;11.10;;;6.38;;
28158;SDS011;15447;50.828;4.406;2023-12-07T11:50:53;10.18;;;6.28;;
28158;SDS011;15447;50.828;4.406;2023-12-07T11:53:31;16.35;;;6.03;;
28158;SDS011;15447;50.828;4.406;2023-12-07T11:56:08;14.18;;;6.10;;
28158;SDS011;15447;50.828;4.406;2023-12-07T11:58:36;25.10;;;6.43;;
28158;SDS011;15447;50.828;4.406;2023-12-07T12:01:06;16.58;;;6.43;;
28158;SDS011;15447;50.828;4.406;2023-12-07T12:03:34;12.38;;;6.82;;
28158;SDS011;15447;50.828;4.406;2023-12-07T12:06:08;16.15;;;6.70;;
28158;SDS011;15447;50.828;4.406;2023-12-07T12:08:36;13.35;;;6.07;;
28158;SDS011;15447;50.828;4.406;2023-12-07T12:11:07;15.75;;;6.28;;
28158;SDS011;15447;50.828;4.406;2023-12-07T12:13:34;16.85;;;6.80;;
28158;SDS011;15447;50.828;4.406;2023-12-07T12:16:06;11.52;;;5.78;;
28158;SDS011;15447;50.828;4.406;2023-12-07T12:18:39;10.93;;;6.65;;
28158;SDS011;15447;50.828;4.406;2023-12-07T12:21:07;11.70;;;6.30;;
28158;SDS011;15447;50.828;4.406;2023-12-07T12:23:39;13.25;;;7.00;;
28158;SDS011;15447;50.828;4.406;2023-12-07T12:26:13;15.95;;;7.68;;
28158;SDS011;15447;50.828;4.406;2023-12-07T12:28:46;13.90;;;6.63;;
28158;SDS011;15447;50.828;4.406;2023-12-07T12:31:20;15.82;;;7.32;;
28158;SDS011;15447;50.828;4.406;2023-12-07T12:33:53;20.58;;;10.45;;
28158;SDS011;15447;50.828;4.406;2023-12-07T12:36:29;15.68;;;6.68;;
28158;SDS011;15447;50.828;4.406;2023-12-07T12:39:04;14.47;;;6.37;;
28158;SDS011;15447;50.828;4.406;2023-12-07T12:41:33;13.25;;;6.30;;
28158;SDS011;15447;50.828;4.406;2023-12-07T12:43:59;12.35;;;5.80;;
28158;SDS011;15447;50.828;4.406;2023-12-07T12:46:25;12.80;;;6.10;;
28158;SDS011;15447;50.828;4.406;2023-12-07T12:51:24;16.35;;;6.82;;
28158;SDS011;15447;50.828;4.406;2023-12-07T12:53:58;13.45;;;6.28;;
28158;SDS011;15447;50.828;4.406;2023-12-07T12:56:27;11.32;;;6.10;;
28158;SDS011;15447;50.828;4.406;2023-12-07T12:59:22;13.68;;;6.65;;
28158;SDS011;15447;50.828;4.406;2023-12-07T13:04:39;12.93;;;5.53;;
28158;SDS011;15447;50.828;4.406;2023-12-07T13:07:07;17.15;;;5.53;;
28158;SDS011;15447;50.828;4.406;2023-12-07T13:09:49;11.00;;;5.18;;
28158;SDS011;15447;50.828;4.406;2023-12-07T13:12:18;9.27;;;5.45;;
28158;SDS011;15447;50.828;4.406;2023-12-07T13:14:53;15.77;;;6.43;;
28158;SDS011;15447;50.828;4.406;2023-12-07T13:17:19;10.45;;;5.72;;
28158;SDS011;15447;50.828;4.406;2023-12-07T13:19:51;14.25;;;5.68;;
28158;SDS011;15447;50.828;4.406;2023-12-07T13:22:22;12.82;;;5.35;;
28158;SDS011;15447;50.828;4.406;2023-12-07T13:24:48;12.25;;;5.53;;
28158;SDS011;15447;50.828;4.406;2023-12-07T13:27:17;11.13;;;5.40;;
28158;SDS011;15447;50.828;4.406;2023-12-07T13:30:02;14.13;;;5.78;;
28158;SDS011;15447;50.828;4.406;2023-12-07T13:32:32;10.80;;;5.75;;
28158;SDS011;15447;50.828;4.406;2023-12-07T13:35:02;9.82;;;5.32;;
28158;SDS011;15447;50.828;4.406;2023-12-07T13:37:32;17.42;;;6.18;;
28158;SDS011;15447;50.828;4.406;2023-12-07T13:40:10;12.18;;;5.68;;
28158;SDS011;15447;50.828;4.406;2023-12-07T13:42:47;11.52;;;5.88;;
28158;SDS011;15447;50.828;4.406;2023-12-07T13:45:16;12.05;;;5.50;;
28158;SDS011;15447;50.828;4.406;2023-12-07T13:47:50;10.55;;;5.47;;
28158;SDS011;15447;50.828;4.406;2023-12-07T13:50:26;12.82;;;6.05;;
28158;SDS011;15447;50.828;4.406;2023-12-07T13:53:01;11.20;;;5.40;;
28158;SDS011;15447;50.828;4.406;2023-12-07T13:55:44;14.25;;;5.65;;
28158;SDS011;15447;50.828;4.406;2023-12-07T13:58:15;9.60;;;5.55;;
28158;SDS011;15447;50.828;4.406;2023-12-07T14:00:44;9.85;;;5.05;;
28158;SDS011;15447;50.828;4.406;2023-12-07T14:03:36;12.38;;;6.68;;
28158;SDS011;15447;50.828;4.406;2023-12-07T14:08:54;14.40;;;6.40;;
28158;SDS011;15447;50.828;4.406;2023-12-07T14:11:29;11.25;;;5.90;;
28158;SDS011;15447;50.828;4.406;2023-12-07T14:14:06;10.68;;;5.40;;
28158;SDS011;15447;50.828;4.406;2023-12-07T14:16:37;14.50;;;6.30;;
28158;SDS011;15447;50.828;4.406;2023-12-07T14:19:17;10.93;;;5.25;;
28158;SDS011;15447;50.828;4.406;2023-12-07T14:21:48;10.85;;;5.50;;
28158;SDS011;15447;50.828;4.406;2023-12-07T14:24:14;11.10;;;6.10;;
28158;SDS011;15447;50.828;4.406;2023-12-07T14:26:44;12.32;;;6.18;;
28158;SDS011;15447;50.828;4.406;2023-12-07T14:29:15;10.48;;;6.10;;
28158;SDS011;15447;50.828;4.406;2023-12-07T14:32:00;12.73;;;6.60;;
28158;SDS011;15447;50.828;4.406;2023-12-07T14:34:29;12.02;;;6.25;;
28158;SDS011;15447;50.828;4.406;2023-12-07T14:36:57;13.93;;;5.95;;
28158;SDS011;15447;50.828;4.406;2023-12-07T14:39:30;16.08;;;6.30;;
28158;SDS011;15447;50.828;4.406;2023-12-07T14:41:59;11.48;;;6.28;;
28158;SDS011;15447;50.828;4.406;2023-12-07T14:44:40;14.55;;;7.43;;
28158;SDS011;15447;50.828;4.406;2023-12-07T14:47:08;10.35;;;5.93;;
28158;SDS011;15447;50.828;4.406;2023-12-07T14:49:44;15.52;;;6.65;;
28158;SDS011;15447;50.828;4.406;2023-12-07T14:52:17;12.43;;;6.22;;
28158;SDS011;15447;50.828;4.406;2023-12-07T14:54:45;13.57;;;6.60;;
28158;SDS011;15447;50.828;4.406;2023-12-07T14:57:15;12.68;;;6.60;;
28158;SDS011;15447;50.828;4.406;2023-12-07T14:59:47;14.63;;;6.97;;
28158;SDS011;15447;50.828;4.406;2023-12-07T15:02:14;14.88;;;7.00;;
28158;SDS011;15447;50.828;4.406;2023-12-07T15:04:42;13.43;;;7.05;;
28158;SDS011;15447;50.828;4.406;2023-12-07T15:07:08;15.52;;;6.68;;
28158;SDS011;15447;50.828;4.406;2023-12-07T15:09:34;17.30;;;7.93;;
28158;SDS011;15447;50.828;4.406;2023-12-07T15:12:02;13.93;;;6.95;;
28158;SDS011;15447;50.828;4.406;2023-12-07T15:14:28;16.63;;;7.53;;
28158;SDS011;15447;50.828;4.406;2023-12-07T15:17:00;11.68;;;7.07;;
28158;SDS011;15447;50.828;4.406;2023-12-07T15:19:26;16.50;;;7.22;;
28158;SDS011;15447;50.828;4.406;2023-12-07T15:21:52;19.45;;;7.10;;
28158;SDS011;15447;50.828;4.406;2023-12-07T15:24:18;13.95;;;6.70;;
28158;SDS011;15447;50.828;4.406;2023-12-07T15:26:54;17.77;;;7.00;;
28158;SDS011;15447;50.828;4.406;2023-12-07T15:29:23;16.98;;;8.23;;
28158;SDS011;15447;50.828;4.406;2023-12-07T15:31:52;16.77;;;7.15;;
28158;SDS011;15447;50.828;4.406;2023-12-07T15:34:21;17.35;;;7.70;;
28158;SDS011;15447;50.828;4.406;2023-12-07T15:36:51;18.52;;;7.72;;
28158;SDS011;15447;50.828;4.406;2023-12-07T15:39:18;17.20;;;7.13;;
28158;SDS011;15447;50.828;4.406;2023-12-07T15:41:43;18.08;;;7.72;;
28158;SDS011;15447;50.828;4.406;2023-12-07T15:44:09;13.80;;;6.70;;
28158;SDS011;15447;50.828;4.406;2023-12-07T15:46:35;13.75;;;6.90;;
28158;SDS011;15447;50.828;4.406;2023-12-07T15:49:00;15.57;;;7.20;;
28158;SDS011;15447;50.828;4.406;2023-12-07T15:51:28;18.63;;;9.70;;
28158;SDS011;15447;50.828;4.406;2023-12-07T15:53:57;14.82;;;7.35;;
28158;SDS011;15447;50.828;4.406;2023-12-07T15:56:27;16.90;;;7.53;;
28158;SDS011;15447;50.828;4.406;2023-12-07T15:58:59;14.48;;;7.32;;
28158;SDS011;15447;50.828;4.406;2023-12-07T16:01:25;14.80;;;7.28;;
28158;SDS011;15447;50.828;4.406;2023-12-07T16:03:53;14.20;;;7.13;;
28158;SDS011;15447;50.828;4.406;2023-12-07T16:06:22;16.02;;;7.43;;
28158;SDS011;15447;50.828;4.406;2023-12-07T16:08:55;11.63;;;6.45;;
28158;SDS011;15447;50.828;4.406;2023-12-07T16:11:23;12.77;;;6.55;;
28158;SDS011;15447;50.828;4.406;2023-12-07T16:13:51;12.25;;;6.93;;
28158;SDS011;15447;50.828;4.406;2023-12-07T16:16:22;11.40;;;6.07;;
28158;SDS011;15447;50.828;4.406;2023-12-07T16:18:50;15.98;;;6.95;;
28158;SDS011;15447;50.828;4.406;2023-12-07T16:21:19;13.57;;;6.80;;
28158;SDS011;15447;50.828;4.406;2023-12-07T16:23:51;12.52;;;6.43;;
28158;SDS011;15447;50.828;4.406;2023-12-07T16:26:22;15.90;;;6.85;;
28158;SDS011;15447;50.828;4.406;2023-12-07T16:28:48;14.30;;;6.72;;
28158;SDS011;15447;50.828;4.406;2023-12-07T16:31:19;12.68;;;6.75;;
28158;SDS011;15447;50.828;4.406;2023-12-07T16:33:45;17.65;;;7.85;;
28158;SDS011;15447;50.828;4.406;2023-12-07T16:36:15;15.80;;;6.60;;
28158;SDS011;15447;50.828;4.406;2023-12-07T16:38:52;12.40;;;6.07;;
28158;SDS011;15447;50.828;4.406;2023-12-07T16:41:21;11.45;;;5.93;;
28158;SDS011;15447;50.828;4.406;2023-12-07T16:43:56;19.15;;;6.63;;
28158;SDS011;15447;50.828;4.406;2023-12-07T16:46:24;10.45;;;5.85;;
28158;SDS011;15447;50.828;4.406;2023-12-07T16:48:53;10.60;;;6.45;;
28158;SDS011;15447;50.828;4.406;2023-12-07T16:51:21;12.38;;;6.07;;
28158;SDS011;15447;50.828;4.406;2023-12-07T16:53:49;11.63;;;6.05;;
28158;SDS011;15447;50.828;4.406;2023-12-07T16:56:16;12.25;;;6.45;;
28158;SDS011;15447;50.828;4.406;2023-12-07T16:58:49;13.35;;;6.20;;
28158;SDS011;15447;50.828;4.406;2023-12-07T17:01:21;17.13;;;7.25;;
28158;SDS011;15447;50.828;4.406;2023-12-07T17:03:50;13.48;;;6.93;;
28158;SDS011;15447;50.828;4.406;2023-12-07T17:06:52;17.20;;;7.68;;
28158;SDS011;15447;50.828;4.406;2023-12-07T17:09:26;15.75;;;7.20;;
28158;SDS011;15447;50.828;4.406;2023-12-07T17:11:57;12.52;;;6.28;;
28158;SDS011;15447;50.828;4.406;2023-12-07T17:14:25;16.13;;;6.72;;
28158;SDS011;15447;50.828;4.406;2023-12-07T17:16:51;16.23;;;7.55;;
28158;SDS011;15447;50.828;4.406;2023-12-07T17:19:19;13.63;;;6.47;;
28158;SDS011;15447;50.828;4.406;2023-12-07T17:21:48;12.43;;;6.35;;
28158;SDS011;15447;50.828;4.406;2023-12-07T17:24:20;14.13;;;6.15;;
28158;SDS011;15447;50.828;4.406;2023-12-07T17:26:46;14.35;;;6.50;;
28158;SDS011;15447;50.828;4.406;2023-12-07T17:29:12;14.57;;;6.05;;
28158;SDS011;15447;50.828;4.406;2023-12-07T17:31:38;14.50;;;6.65;;
28158;SDS011;15447;50.828;4.406;2023-12-07T17:34:05;12.85;;;7.25;;
28158;SDS011;15447;50.828;4.406;2023-12-07T17:36:31;15.18;;;6.80;;
28158;SDS011;15447;50.828;4.406;2023-12-07T17:38:56;11.23;;;6.60;;
28158;SDS011;15447;50.828;4.406;2023-12-07T17:41:22;13.45;;;6.97;;
28158;SDS011;15447;50.828;4.406;2023-12-07T17:43:48;13.43;;;7.03;;
28158;SDS011;15447;50.828;4.406;2023-12-07T17:46:16;11.45;;;6.40;;
28158;SDS011;15447;50.828;4.406;2023-12-07T17:48:41;14.25;;;6.53;;
28158;SDS011;15447;50.828;4.406;2023-12-07T17:51:07;13.90;;;7.25;;
28158;SDS011;15447;50.828;4.406;2023-12-07T17:53:33;14.13;;;7.20;;
28158;SDS011;15447;50.828;4.406;2023-12-07T17:55:59;18.30;;;7.43;;
28158;SDS011;15447;50.828;4.406;2023-12-07T17:58:28;16.40;;;7.75;;
28158;SDS011;15447;50.828;4.406;2023-12-07T18:00:55;15.27;;;6.75;;
28158;SDS011;15447;50.828;4.406;2023-12-07T18:03:25;14.48;;;7.13;;
28158;SDS011;15447;50.828;4.406;2023-12-07T18:05:51;14.23;;;6.93;;
28158;SDS011;15447;50.828;4.406;2023-12-07T18:08:22;14.40;;;7.57;;
28158;SDS011;15447;50.828;4.406;2023-12-07T18:10:47;14.70;;;7.10;;
28158;SDS011;15447;50.828;4.406;2023-12-07T18:13:13;13.63;;;6.40;;
28158;SDS011;15447;50.828;4.406;2023-12-07T18:15:39;14.77;;;7.78;;
28158;SDS011;15447;50.828;4.406;2023-12-07T18:18:04;16.63;;;7.38;;
28158;SDS011;15447;50.828;4.406;2023-12-07T18:20:30;14.80;;;7.40;;
28158;SDS011;15447;50.828;4.406;2023-12-07T18:22:55;10.98;;;5.93;;
28158;SDS011;15447;50.828;4.406;2023-12-07T18:25:21;13.50;;;6.50;;
28158;SDS011;15447;50.828;4.406;2023-12-07T18:27:47;10.77;;;6.40;;
28158;SDS011;15447;50.828;4.406;2023-12-07T18:30:12;14.25;;;7.70;;
28158;SDS011;15447;50.828;4.406;2023-12-07T18:32:38;12.52;;;5.82;;
28158;SDS011;15447;50.828;4.406;2023-12-07T18:38:11;10.90;;;6.40;;
28158;SDS011;15447;50.828;4.406;2023-12-07T18:40:37;11.77;;;6.57;;
28158;SDS011;15447;50.828;4.406;2023-12-07T18:43:08;12.45;;;6.32;;
28158;SDS011;15447;50.828;4.406;2023-12-07T18:45:35;14.38;;;5.68;;
28158;SDS011;15447;50.828;4.406;2023-12-07T18:48:01;10.27;;;5.55;;
28158;SDS011;15447;50.828;4.406;2023-12-07T18:50:27;16.50;;;6.55;;
28158;SDS011;15447;50.828;4.406;2023-12-07T18:52:53;11.57;;;6.40;;
28158;SDS011;15447;50.828;4.406;2023-12-07T18:55:21;11.52;;;6.00;;
28158;SDS011;15447;50.828;4.406;2023-12-07T18:57:53;11.88;;;6.53;;
28158;SDS011;15447;50.828;4.406;2023-12-07T19:00:20;11.95;;;5.75;;
28158;SDS011;15447;50.828;4.406;2023-12-07T19:02:46;13.15;;;6.22;;
28158;SDS011;15447;50.828;4.406;2023-12-07T19:05:40;12.52;;;6.38;;
28158;SDS011;15447;50.828;4.406;2023-12-07T19:11:36;12.65;;;5.13;;
28158;SDS011;15447;50.828;4.406;2023-12-07T19:14:41;9.82;;;5.47;;
28158;SDS011;15447;50.828;4.406;2023-12-07T19:17:22;9.20;;;4.95;;
28158;SDS011;15447;50.828;4.406;2023-12-07T19:20:41;11.50;;;5.85;;
28158;SDS011;15447;50.828;4.406;2023-12-07T19:24:11;13.90;;;5.78;;
28158;SDS011;15447;50.828;4.406;2023-12-07T19:27:00;10.57;;;5.07;;
28158;SDS011;15447;50.828;4.406;2023-12-07T19:29:51;11.57;;;5.60;;
28158;SDS011;15447;50.828;4.406;2023-12-07T19:32:33;12.80;;;6.15;;
28158;SDS011;15447;50.828;4.406;2023-12-07T19:35:02;10.95;;;5.53;;
28158;SDS011;15447;50.828;4.406;2023-12-07T19:38:42;9.52;;;5.55;;
28158;SDS011;15447;50.828;4.406;2023-12-07T19:41:07;9.80;;;6.07;;
28158;SDS011;15447;50.828;4.406;2023-12-07T19:44:01;13.20;;;5.78;;
28158;SDS011;15447;50.828;4.406;2023-12-07T19:46:54;10.93;;;5.50;;
28158;SDS011;15447;50.828;4.406;2023-12-07T20:16:27;11.77;;;5.78;;
28158;SDS011;15447;50.828;4.406;2023-12-07T20:19:16;11.15;;;5.93;;
28158;SDS011;15447;50.828;4.406;2023-12-07T20:21:43;10.57;;;5.90;;
28158;SDS011;15447;50.828;4.406;2023-12-07T20:24:16;11.20;;;6.40;;
28158;SDS011;15447;50.828;4.406;2023-12-07T20:26:57;12.70;;;5.88;;
28158;SDS011;15447;50.828;4.406;2023-12-07T20:29:28;9.55;;;5.80;;
28158;SDS011;15447;50.828;4.406;2023-12-07T20:34:50;10.60;;;5.55;;
28158;SDS011;15447;50.828;4.406;2023-12-07T20:37:22;12.02;;;6.05;;
28158;SDS011;15447;50.828;4.406;2023-12-07T20:50:24;14.75;;;6.78;;
28158;SDS011;15447;50.828;4.406;2023-12-07T20:53:01;12.18;;;5.53;;
28158;SDS011;15447;50.828;4.406;2023-12-07T20:58:53;12.70;;;5.97;;
28158;SDS011;15447;50.828;4.406;2023-12-07T21:01:45;11.75;;;5.90;;
28158;SDS011;15447;50.828;4.406;2023-12-07T21:10:47;11.27;;;6.00;;
28158;SDS011;15447;50.828;4.406;2023-12-07T21:14:19;16.95;;;6.13;;
28158;SDS011;15447;50.828;4.406;2023-12-07T21:26:08;7.68;;;4.10;;
28158;SDS011;15447;50.828;4.406;2023-12-07T21:36:09;9.07;;;5.22;;
28158;SDS011;15447;50.828;4.406;2023-12-07T21:38:41;9.20;;;4.78;;
28158;SDS011;15447;50.828;4.406;2023-12-07T21:41:08;10.15;;;5.00;;
28158;SDS011;15447;50.828;4.406;2023-12-07T21:43:35;9.77;;;4.07;;
28158;SDS011;15447;50.828;4.406;2023-12-07T21:46:10;7.68;;;4.32;;
28158;SDS011;15447;50.828;4.406;2023-12-07T21:48:48;8.00;;;5.00;;
28158;SDS011;15447;50.828;4.406;2023-12-07T21:51:20;7.35;;;4.40;;
28158;SDS011;15447;50.828;4.406;2023-12-07T21:54:06;10.07;;;4.30;;
28158;SDS011;15447;50.828;4.406;2023-12-07T21:56:48;8.80;;;4.20;;
28158;SDS011;15447;50.828;4.406;2023-12-07T22:03:27;6.43;;;3.63;;
28158;SDS011;15447;50.828;4.406;2023-12-07T22:06:45;5.57;;;4.10;;
28158;SDS011;15447;50.828;4.406;2023-12-07T22:09:36;5.97;;;4.18;;
28158;SDS011;15447;50.828;4.406;2023-12-07T22:12:38;7.22;;;4.10;;
28158;SDS011;15447;50.828;4.406;2023-12-07T22:15:51;6.30;;;4.20;;
28158;SDS011;15447;50.828;4.406;2023-12-07T22:18:16;6.03;;;3.80;;
28158;SDS011;15447;50.828;4.406;2023-12-07T22:21:02;5.63;;;3.67;;
28158;SDS011;15447;50.828;4.406;2023-12-07T22:23:28;7.25;;;3.80;;
28158;SDS011;15447;50.828;4.406;2023-12-07T22:36:43;8.05;;;3.63;;
